sensor_id;sensor_type;location;lat;lon;timestamp;P1;durP1;ratioP1;P2;durP2;ratioP2
44973;SDS011;60981;50.720;11.342;2023-02-11T00:00:05;33.60;;;19.50;;
44973;SDS011;60981;50.720;11.342;2023-02-11T00:01:08;34.75;;;20.30;;
44973;SDS011;60981;50.720;11.342;2023-02-11T00:02:12;36.83;;;21.10;;
44973;SDS011;60981;50.720;11.342;2023-02-11T00:03:14;33.67;;;19.08;;
44973;SDS011;60981;50.720;11.342;2023-02-11T00:04:15;33.80;;;20.13;;
44973;SDS011;60981;50.720;11.342;2023-02-11T00:05:18;33.03;;;20.48;;
44973;SDS011;60981;50.720;11.342;2023-02-11T00:06:20;33.88;;;19.35;;
44973;SDS011;60981;50.720;11.342;2023-02-11T00:07:22;35.08;;;20.48;;
44973;SDS011;60981;50.720;11.342;2023-02-11T00:08:24;35.53;;;20.30;;
44973;SDS011;60981;50.720;11.342;2023-02-11T00:09:26;31.75;;;19.48;;
44973;SDS011;60981;50.720;11.342;2023-02-11T00:10:30;34.70;;;19.73;;
44973;SDS011;60981;50.720;11.342;2023-02-11T00:11:32;33.55;;;20.40;;
44973;SDS011;60981;50.720;11.342;2023-02-11T00:12:35;35.45;;;20.33;;
44973;SDS011;60981;50.720;11.342;2023-02-11T00:13:37;34.70;;;20.00;;
44973;SDS011;60981;50.720;11.342;2023-02-11T00:14:39;34.10;;;19.95;;
44973;SDS011;60981;50.720;11.342;2023-02-11T00:15:41;37.95;;;21.27;;
44973;SDS011;60981;50.720;11.342;2023-02-11T00:16:42;32.15;;;18.88;;
44973;SDS011;60981;50.720;11.342;2023-02-11T00:17:44;32.00;;;19.40;;
44973;SDS011;60981;50.720;11.342;2023-02-11T00:18:46;33.85;;;20.02;;
44973;SDS011;60981;50.720;11.342;2023-02-11T00:19:49;33.13;;;20.23;;
44973;SDS011;60981;50.720;11.342;2023-02-11T00:20:51;33.33;;;19.05;;
44973;SDS011;60981;50.720;11.342;2023-02-11T00:21:53;33.58;;;19.42;;
44973;SDS011;60981;50.720;11.342;2023-02-11T00:22:54;33.08;;;20.48;;
44973;SDS011;60981;50.720;11.342;2023-02-11T00:23:56;34.05;;;19.02;;
44973;SDS011;60981;50.720;11.342;2023-02-11T00:25:00;31.90;;;19.10;;
44973;SDS011;60981;50.720;11.342;2023-02-11T00:26:02;32.85;;;19.73;;
44973;SDS011;60981;50.720;11.342;2023-02-11T00:27:04;35.97;;;21.70;;
44973;SDS011;60981;50.720;11.342;2023-02-11T00:28:06;35.28;;;20.13;;
44973;SDS011;60981;50.720;11.342;2023-02-11T00:29:11;34.17;;;19.40;;
44973;SDS011;60981;50.720;11.342;2023-02-11T00:30:16;35.40;;;20.77;;
44973;SDS011;60981;50.720;11.342;2023-02-11T00:31:21;34.22;;;20.13;;
44973;SDS011;60981;50.720;11.342;2023-02-11T00:32:25;32.60;;;19.23;;
44973;SDS011;60981;50.720;11.342;2023-02-11T00:33:27;33.35;;;18.83;;
44973;SDS011;60981;50.720;11.342;2023-02-11T00:34:32;33.72;;;19.65;;
44973;SDS011;60981;50.720;11.342;2023-02-11T00:35:35;31.42;;;18.73;;
44973;SDS011;60981;50.720;11.342;2023-02-11T00:36:39;32.85;;;18.83;;
44973;SDS011;60981;50.720;11.342;2023-02-11T00:37:42;31.05;;;18.67;;
44973;SDS011;60981;50.720;11.342;2023-02-11T00:38:44;35.10;;;20.02;;
44973;SDS011;60981;50.720;11.342;2023-02-11T00:39:46;32.78;;;19.63;;
44973;SDS011;60981;50.720;11.342;2023-02-11T00:40:50;33.25;;;19.23;;
44973;SDS011;60981;50.720;11.342;2023-02-11T00:41:52;35.70;;;19.80;;
44973;SDS011;60981;50.720;11.342;2023-02-11T00:42:56;33.40;;;18.70;;
44973;SDS011;60981;50.720;11.342;2023-02-11T00:43:58;32.65;;;19.00;;
44973;SDS011;60981;50.720;11.342;2023-02-11T00:45:02;32.33;;;19.35;;
44973;SDS011;60981;50.720;11.342;2023-02-11T00:46:04;32.25;;;18.98;;
44973;SDS011;60981;50.720;11.342;2023-02-11T00:47:06;32.95;;;18.65;;
44973;SDS011;60981;50.720;11.342;2023-02-11T00:48:08;33.58;;;20.02;;
44973;SDS011;60981;50.720;11.342;2023-02-11T00:49:10;34.38;;;19.55;;
44973;SDS011;60981;50.720;11.342;2023-02-11T00:50:11;34.03;;;18.95;;
44973;SDS011;60981;50.720;11.342;2023-02-11T00:51:13;31.77;;;19.25;;
44973;SDS011;60981;50.720;11.342;2023-02-11T00:52:15;33.88;;;19.30;;
44973;SDS011;60981;50.720;11.342;2023-02-11T00:53:21;32.90;;;18.75;;
44973;SDS011;60981;50.720;11.342;2023-02-11T00:54:23;30.15;;;17.45;;
44973;SDS011;60981;50.720;11.342;2023-02-11T00:55:25;29.45;;;17.80;;
44973;SDS011;60981;50.720;11.342;2023-02-11T00:56:26;29.93;;;18.30;;
44973;SDS011;60981;50.720;11.342;2023-02-11T00:57:29;30.65;;;18.38;;
44973;SDS011;60981;50.720;11.342;2023-02-11T00:58:31;30.55;;;17.92;;
44973;SDS011;60981;50.720;11.342;2023-02-11T00:59:34;30.15;;;17.90;;
44973;SDS011;60981;50.720;11.342;2023-02-11T01:00:36;30.40;;;18.27;;
44973;SDS011;60981;50.720;11.342;2023-02-11T01:01:37;31.35;;;18.35;;
44973;SDS011;60981;50.720;11.342;2023-02-11T01:02:40;30.45;;;18.55;;
44973;SDS011;60981;50.720;11.342;2023-02-11T01:03:41;30.35;;;18.15;;
44973;SDS011;60981;50.720;11.342;2023-02-11T01:04:43;27.52;;;16.95;;
44973;SDS011;60981;50.720;11.342;2023-02-11T01:05:45;30.15;;;18.10;;
44973;SDS011;60981;50.720;11.342;2023-02-11T01:06:46;29.27;;;17.67;;
44973;SDS011;60981;50.720;11.342;2023-02-11T01:07:48;29.85;;;17.90;;
44973;SDS011;60981;50.720;11.342;2023-02-11T01:08:50;28.52;;;17.35;;
44973;SDS011;60981;50.720;11.342;2023-02-11T01:09:52;29.58;;;17.77;;
44973;SDS011;60981;50.720;11.342;2023-02-11T01:10:57;29.42;;;17.63;;
44973;SDS011;60981;50.720;11.342;2023-02-11T01:12:00;30.30;;;17.50;;
44973;SDS011;60981;50.720;11.342;2023-02-11T01:13:04;30.27;;;18.15;;
44973;SDS011;60981;50.720;11.342;2023-02-11T01:14:07;30.15;;;18.48;;
44973;SDS011;60981;50.720;11.342;2023-02-11T01:15:10;27.33;;;16.73;;
44973;SDS011;60981;50.720;11.342;2023-02-11T01:16:14;27.73;;;17.58;;
44973;SDS011;60981;50.720;11.342;2023-02-11T01:17:17;29.10;;;17.60;;
44973;SDS011;60981;50.720;11.342;2023-02-11T01:18:18;30.95;;;17.98;;
44973;SDS011;60981;50.720;11.342;2023-02-11T01:19:20;29.55;;;17.05;;
44973;SDS011;60981;50.720;11.342;2023-02-11T01:20:24;28.08;;;16.23;;
44973;SDS011;60981;50.720;11.342;2023-02-11T01:21:28;28.65;;;17.15;;
44973;SDS011;60981;50.720;11.342;2023-02-11T01:22:30;29.40;;;17.65;;
44973;SDS011;60981;50.720;11.342;2023-02-11T01:23:31;30.98;;;18.15;;
44973;SDS011;60981;50.720;11.342;2023-02-11T01:24:37;30.13;;;18.20;;
44973;SDS011;60981;50.720;11.342;2023-02-11T01:25:39;28.00;;;17.58;;
44973;SDS011;60981;50.720;11.342;2023-02-11T01:26:42;27.55;;;17.33;;
44973;SDS011;60981;50.720;11.342;2023-02-11T01:27:44;31.20;;;17.77;;
44973;SDS011;60981;50.720;11.342;2023-02-11T01:28:45;27.80;;;17.10;;
44973;SDS011;60981;50.720;11.342;2023-02-11T01:29:47;30.20;;;17.35;;
44973;SDS011;60981;50.720;11.342;2023-02-11T01:30:49;30.17;;;17.60;;
44973;SDS011;60981;50.720;11.342;2023-02-11T01:31:52;28.05;;;17.42;;
44973;SDS011;60981;50.720;11.342;2023-02-11T01:32:53;30.65;;;18.52;;
44973;SDS011;60981;50.720;11.342;2023-02-11T01:33:55;29.55;;;17.70;;
44973;SDS011;60981;50.720;11.342;2023-02-11T01:34:57;26.83;;;17.65;;
44973;SDS011;60981;50.720;11.342;2023-02-11T01:35:59;29.90;;;18.40;;
44973;SDS011;60981;50.720;11.342;2023-02-11T01:37:03;32.28;;;17.65;;
44973;SDS011;60981;50.720;11.342;2023-02-11T01:38:05;27.83;;;17.27;;
44973;SDS011;60981;50.720;11.342;2023-02-11T01:39:08;28.27;;;17.20;;
44973;SDS011;60981;50.720;11.342;2023-02-11T01:40:13;27.73;;;17.27;;
44973;SDS011;60981;50.720;11.342;2023-02-11T01:41:16;28.75;;;17.77;;
44973;SDS011;60981;50.720;11.342;2023-02-11T01:42:19;27.80;;;17.48;;
44973;SDS011;60981;50.720;11.342;2023-02-11T01:43:23;30.40;;;17.60;;
44973;SDS011;60981;50.720;11.342;2023-02-11T01:46:54;27.35;;;17.65;;
44973;SDS011;60981;50.720;11.342;2023-02-11T01:47:57;31.13;;;18.60;;
44973;SDS011;60981;50.720;11.342;2023-02-11T01:50:07;29.58;;;17.67;;
44973;SDS011;60981;50.720;11.342;2023-02-11T01:51:13;31.58;;;17.33;;
44973;SDS011;60981;50.720;11.342;2023-02-11T01:52:31;30.13;;;17.58;;
44973;SDS011;60981;50.720;11.342;2023-02-11T01:53:37;30.75;;;17.42;;
44973;SDS011;60981;50.720;11.342;2023-02-11T01:54:58;30.23;;;18.40;;
44973;SDS011;60981;50.720;11.342;2023-02-11T01:56:22;30.13;;;17.52;;
44973;SDS011;60981;50.720;11.342;2023-02-11T01:57:48;28.73;;;16.92;;
44973;SDS011;60981;50.720;11.342;2023-02-11T01:58:57;30.70;;;18.13;;
44973;SDS011;60981;50.720;11.342;2023-02-11T02:01:13;32.33;;;19.17;;
44973;SDS011;60981;50.720;11.342;2023-02-11T02:02:19;29.63;;;17.90;;
44973;SDS011;60981;50.720;11.342;2023-02-11T02:03:25;30.50;;;18.30;;
44973;SDS011;60981;50.720;11.342;2023-02-11T02:04:33;30.77;;;17.92;;
44973;SDS011;60981;50.720;11.342;2023-02-11T02:05:56;28.85;;;17.52;;
44973;SDS011;60981;50.720;11.342;2023-02-11T02:07:11;29.58;;;17.35;;
44973;SDS011;60981;50.720;11.342;2023-02-11T02:09:27;30.55;;;17.20;;
44973;SDS011;60981;50.720;11.342;2023-02-11T02:10:33;30.65;;;18.27;;
44973;SDS011;60981;50.720;11.342;2023-02-11T02:11:36;29.67;;;17.30;;
44973;SDS011;60981;50.720;11.342;2023-02-11T02:12:38;31.13;;;18.48;;
44973;SDS011;60981;50.720;11.342;2023-02-11T02:13:41;29.67;;;17.98;;
44973;SDS011;60981;50.720;11.342;2023-02-11T02:14:43;31.53;;;18.83;;
44973;SDS011;60981;50.720;11.342;2023-02-11T02:15:47;29.92;;;17.80;;
44973;SDS011;60981;50.720;11.342;2023-02-11T02:16:53;28.35;;;17.20;;
44973;SDS011;60981;50.720;11.342;2023-02-11T02:17:59;29.85;;;18.20;;
44973;SDS011;60981;50.720;11.342;2023-02-11T02:21:18;32.30;;;18.55;;
44973;SDS011;60981;50.720;11.342;2023-02-11T02:28:40;32.53;;;18.63;;
44973;SDS011;60981;50.720;11.342;2023-02-11T02:37:07;31.98;;;18.27;;
44973;SDS011;60981;50.720;11.342;2023-02-11T02:38:22;31.03;;;18.77;;
44973;SDS011;60981;50.720;11.342;2023-02-11T02:39:47;29.83;;;17.55;;
44973;SDS011;60981;50.720;11.342;2023-02-11T02:40:52;28.50;;;17.17;;
44973;SDS011;60981;50.720;11.342;2023-02-11T02:41:59;31.85;;;18.52;;
44973;SDS011;60981;50.720;11.342;2023-02-11T02:43:02;29.77;;;17.25;;
44973;SDS011;60981;50.720;11.342;2023-02-11T02:44:05;28.55;;;17.33;;
44973;SDS011;60981;50.720;11.342;2023-02-11T02:45:10;29.15;;;17.77;;
44973;SDS011;60981;50.720;11.342;2023-02-11T02:47:29;28.30;;;16.95;;
44973;SDS011;60981;50.720;11.342;2023-02-11T02:48:31;27.85;;;16.70;;
44973;SDS011;60981;50.720;11.342;2023-02-11T02:49:36;29.55;;;17.83;;
44973;SDS011;60981;50.720;11.342;2023-02-11T02:50:37;26.73;;;17.42;;
44973;SDS011;60981;50.720;11.342;2023-02-11T02:51:48;28.95;;;18.15;;
44973;SDS011;60981;50.720;11.342;2023-02-11T02:55:51;32.58;;;18.98;;
44973;SDS011;60981;50.720;11.342;2023-02-11T02:58:35;28.85;;;18.05;;
44973;SDS011;60981;50.720;11.342;2023-02-11T03:01:09;28.57;;;17.37;;
44973;SDS011;60981;50.720;11.342;2023-02-11T03:02:49;29.42;;;17.33;;
44973;SDS011;60981;50.720;11.342;2023-02-11T03:05:17;29.45;;;18.23;;
44973;SDS011;60981;50.720;11.342;2023-02-11T03:10:16;27.75;;;16.92;;
44973;SDS011;60981;50.720;11.342;2023-02-11T03:11:22;32.83;;;18.20;;
44973;SDS011;60981;50.720;11.342;2023-02-11T03:12:26;29.27;;;17.15;;
44973;SDS011;60981;50.720;11.342;2023-02-11T03:13:31;28.52;;;16.98;;
44973;SDS011;60981;50.720;11.342;2023-02-11T03:14:35;29.42;;;17.80;;
44973;SDS011;60981;50.720;11.342;2023-02-11T03:15:42;29.60;;;18.20;;
44973;SDS011;60981;50.720;11.342;2023-02-11T03:16:48;30.60;;;18.20;;
44973;SDS011;60981;50.720;11.342;2023-02-11T03:17:53;28.63;;;18.13;;
44973;SDS011;60981;50.720;11.342;2023-02-11T03:19:01;29.20;;;17.00;;
44973;SDS011;60981;50.720;11.342;2023-02-11T03:20:06;28.83;;;17.20;;
44973;SDS011;60981;50.720;11.342;2023-02-11T03:21:14;30.52;;;18.10;;
44973;SDS011;60981;50.720;11.342;2023-02-11T03:22:21;30.20;;;17.50;;
44973;SDS011;60981;50.720;11.342;2023-02-11T03:23:52;28.50;;;16.23;;
44973;SDS011;60981;50.720;11.342;2023-02-11T03:24:58;31.38;;;18.98;;
44973;SDS011;60981;50.720;11.342;2023-02-11T03:26:04;30.00;;;17.63;;
44973;SDS011;60981;50.720;11.342;2023-02-11T03:30:19;30.80;;;17.65;;
44973;SDS011;60981;50.720;11.342;2023-02-11T03:33:02;31.67;;;18.23;;
44973;SDS011;60981;50.720;11.342;2023-02-11T03:34:37;29.80;;;17.25;;
44973;SDS011;60981;50.720;11.342;2023-02-11T03:35:52;29.35;;;17.58;;
44973;SDS011;60981;50.720;11.342;2023-02-11T03:37:00;29.60;;;17.23;;
44973;SDS011;60981;50.720;11.342;2023-02-11T03:38:11;28.75;;;16.98;;
44973;SDS011;60981;50.720;11.342;2023-02-11T03:39:18;29.67;;;18.23;;
44973;SDS011;60981;50.720;11.342;2023-02-11T03:40:28;29.48;;;17.05;;
44973;SDS011;60981;50.720;11.342;2023-02-11T03:41:36;29.67;;;17.55;;
44973;SDS011;60981;50.720;11.342;2023-02-11T03:42:41;28.92;;;18.05;;
44973;SDS011;60981;50.720;11.342;2023-02-11T03:43:49;29.60;;;17.33;;
44973;SDS011;60981;50.720;11.342;2023-02-11T03:44:57;29.13;;;17.65;;
44973;SDS011;60981;50.720;11.342;2023-02-11T03:46:04;29.88;;;17.85;;
44973;SDS011;60981;50.720;11.342;2023-02-11T03:47:08;29.98;;;17.35;;
44973;SDS011;60981;50.720;11.342;2023-02-11T03:48:21;29.90;;;18.33;;
44973;SDS011;60981;50.720;11.342;2023-02-11T03:49:26;30.70;;;17.58;;
44973;SDS011;60981;50.720;11.342;2023-02-11T03:50:30;28.95;;;17.73;;
44973;SDS011;60981;50.720;11.342;2023-02-11T03:51:35;30.95;;;18.00;;
44973;SDS011;60981;50.720;11.342;2023-02-11T03:52:38;30.93;;;17.73;;
44973;SDS011;60981;50.720;11.342;2023-02-11T03:53:42;29.65;;;17.48;;
44973;SDS011;60981;50.720;11.342;2023-02-11T03:54:47;28.83;;;17.70;;
44973;SDS011;60981;50.720;11.342;2023-02-11T03:55:54;28.27;;;16.85;;
44973;SDS011;60981;50.720;11.342;2023-02-11T03:57:01;28.23;;;16.77;;
44973;SDS011;60981;50.720;11.342;2023-02-11T03:58:03;28.17;;;16.67;;
44973;SDS011;60981;50.720;11.342;2023-02-11T03:59:05;28.50;;;16.70;;
44973;SDS011;60981;50.720;11.342;2023-02-11T04:00:08;26.63;;;16.55;;
44973;SDS011;60981;50.720;11.342;2023-02-11T04:01:11;28.17;;;16.80;;
44973;SDS011;60981;50.720;11.342;2023-02-11T04:02:13;29.25;;;17.23;;
44973;SDS011;60981;50.720;11.342;2023-02-11T04:03:15;28.88;;;17.52;;
44973;SDS011;60981;50.720;11.342;2023-02-11T04:04:17;30.63;;;16.63;;
44973;SDS011;60981;50.720;11.342;2023-02-11T04:05:19;29.85;;;17.80;;
44973;SDS011;60981;50.720;11.342;2023-02-11T04:06:21;28.90;;;17.10;;
44973;SDS011;60981;50.720;11.342;2023-02-11T04:07:22;28.58;;;16.77;;
44973;SDS011;60981;50.720;11.342;2023-02-11T04:08:24;29.85;;;17.65;;
44973;SDS011;60981;50.720;11.342;2023-02-11T04:09:25;28.85;;;18.35;;
44973;SDS011;60981;50.720;11.342;2023-02-11T04:10:27;27.40;;;16.55;;
44973;SDS011;60981;50.720;11.342;2023-02-11T04:11:29;26.85;;;16.33;;
44973;SDS011;60981;50.720;11.342;2023-02-11T04:12:31;29.70;;;17.42;;
44973;SDS011;60981;50.720;11.342;2023-02-11T04:13:35;28.80;;;17.30;;
44973;SDS011;60981;50.720;11.342;2023-02-11T04:14:36;28.90;;;18.17;;
44973;SDS011;60981;50.720;11.342;2023-02-11T04:15:38;29.05;;;16.88;;
44973;SDS011;60981;50.720;11.342;2023-02-11T04:16:40;29.75;;;18.17;;
44973;SDS011;60981;50.720;11.342;2023-02-11T04:17:42;29.85;;;17.02;;
44973;SDS011;60981;50.720;11.342;2023-02-11T04:18:44;27.75;;;16.95;;
44973;SDS011;60981;50.720;11.342;2023-02-11T04:19:46;30.20;;;18.30;;
44973;SDS011;60981;50.720;11.342;2023-02-11T04:20:48;27.05;;;16.90;;
44973;SDS011;60981;50.720;11.342;2023-02-11T04:21:50;29.65;;;17.42;;
44973;SDS011;60981;50.720;11.342;2023-02-11T04:22:52;29.33;;;16.83;;
44973;SDS011;60981;50.720;11.342;2023-02-11T04:23:54;27.77;;;16.50;;
44973;SDS011;60981;50.720;11.342;2023-02-11T04:24:56;27.35;;;16.88;;
44973;SDS011;60981;50.720;11.342;2023-02-11T04:25:59;27.50;;;16.40;;
44973;SDS011;60981;50.720;11.342;2023-02-11T04:27:01;29.33;;;16.75;;
44973;SDS011;60981;50.720;11.342;2023-02-11T04:28:03;27.75;;;16.95;;
44973;SDS011;60981;50.720;11.342;2023-02-11T04:29:04;27.55;;;16.90;;
44973;SDS011;60981;50.720;11.342;2023-02-11T04:30:09;28.80;;;17.27;;
44973;SDS011;60981;50.720;11.342;2023-02-11T04:31:11;27.98;;;16.92;;
44973;SDS011;60981;50.720;11.342;2023-02-11T04:32:13;28.15;;;17.95;;
44973;SDS011;60981;50.720;11.342;2023-02-11T04:33:15;28.13;;;17.33;;
44973;SDS011;60981;50.720;11.342;2023-02-11T04:34:17;28.50;;;16.75;;
44973;SDS011;60981;50.720;11.342;2023-02-11T04:35:19;28.42;;;16.70;;
44973;SDS011;60981;50.720;11.342;2023-02-11T04:36:22;27.17;;;16.45;;
44973;SDS011;60981;50.720;11.342;2023-02-11T04:37:23;27.08;;;15.95;;
44973;SDS011;60981;50.720;11.342;2023-02-11T04:38:25;28.52;;;17.83;;
44973;SDS011;60981;50.720;11.342;2023-02-11T04:39:27;28.92;;;17.40;;
44973;SDS011;60981;50.720;11.342;2023-02-11T04:40:28;29.03;;;17.70;;
44973;SDS011;60981;50.720;11.342;2023-02-11T04:41:30;27.67;;;17.17;;
44973;SDS011;60981;50.720;11.342;2023-02-11T04:42:32;28.42;;;16.63;;
44973;SDS011;60981;50.720;11.342;2023-02-11T04:43:36;29.45;;;17.42;;
44973;SDS011;60981;50.720;11.342;2023-02-11T04:44:38;28.00;;;16.80;;
44973;SDS011;60981;50.720;11.342;2023-02-11T04:45:39;26.77;;;16.35;;
44973;SDS011;60981;50.720;11.342;2023-02-11T04:46:41;29.13;;;16.90;;
44973;SDS011;60981;50.720;11.342;2023-02-11T04:47:43;27.67;;;17.63;;
44973;SDS011;60981;50.720;11.342;2023-02-11T04:48:45;27.15;;;17.00;;
44973;SDS011;60981;50.720;11.342;2023-02-11T04:49:47;29.00;;;17.33;;
44973;SDS011;60981;50.720;11.342;2023-02-11T04:50:48;29.23;;;17.38;;
44973;SDS011;60981;50.720;11.342;2023-02-11T04:51:50;29.58;;;16.40;;
44973;SDS011;60981;50.720;11.342;2023-02-11T04:52:54;28.60;;;16.73;;
44973;SDS011;60981;50.720;11.342;2023-02-11T04:53:56;29.65;;;17.30;;
44973;SDS011;60981;50.720;11.342;2023-02-11T04:54:57;27.95;;;16.98;;
44973;SDS011;60981;50.720;11.342;2023-02-11T04:55:59;28.60;;;17.15;;
44973;SDS011;60981;50.720;11.342;2023-02-11T04:57:01;25.63;;;16.33;;
44973;SDS011;60981;50.720;11.342;2023-02-11T04:58:02;28.88;;;17.45;;
44973;SDS011;60981;50.720;11.342;2023-02-11T04:59:05;28.48;;;17.10;;
44973;SDS011;60981;50.720;11.342;2023-02-11T05:00:08;28.00;;;17.48;;
44973;SDS011;60981;50.720;11.342;2023-02-11T05:01:12;28.27;;;16.60;;
44973;SDS011;60981;50.720;11.342;2023-02-11T05:02:15;30.63;;;17.95;;
44973;SDS011;60981;50.720;11.342;2023-02-11T05:03:17;30.80;;;17.00;;
44973;SDS011;60981;50.720;11.342;2023-02-11T05:04:18;28.20;;;17.00;;
44973;SDS011;60981;50.720;11.342;2023-02-11T05:05:20;27.73;;;16.58;;
44973;SDS011;60981;50.720;11.342;2023-02-11T05:06:22;29.20;;;18.35;;
44973;SDS011;60981;50.720;11.342;2023-02-11T05:07:24;28.55;;;17.77;;
44973;SDS011;60981;50.720;11.342;2023-02-11T05:08:26;30.15;;;17.42;;
44973;SDS011;60981;50.720;11.342;2023-02-11T05:09:29;28.02;;;17.23;;
44973;SDS011;60981;50.720;11.342;2023-02-11T05:10:31;29.17;;;17.92;;
44973;SDS011;60981;50.720;11.342;2023-02-11T05:11:36;27.90;;;17.45;;
44973;SDS011;60981;50.720;11.342;2023-02-11T05:12:40;28.25;;;17.02;;
44973;SDS011;60981;50.720;11.342;2023-02-11T05:13:42;27.75;;;17.02;;
44973;SDS011;60981;50.720;11.342;2023-02-11T05:14:44;27.10;;;17.45;;
44973;SDS011;60981;50.720;11.342;2023-02-11T05:15:45;26.33;;;16.65;;
44973;SDS011;60981;50.720;11.342;2023-02-11T05:16:50;27.30;;;17.35;;
44973;SDS011;60981;50.720;11.342;2023-02-11T05:17:53;28.80;;;17.48;;
44973;SDS011;60981;50.720;11.342;2023-02-11T05:18:55;27.08;;;17.17;;
44973;SDS011;60981;50.720;11.342;2023-02-11T05:19:56;25.50;;;16.38;;
44973;SDS011;60981;50.720;11.342;2023-02-11T05:20:58;27.40;;;16.88;;
44973;SDS011;60981;50.720;11.342;2023-02-11T05:22:00;27.10;;;17.38;;
44973;SDS011;60981;50.720;11.342;2023-02-11T05:23:04;29.00;;;17.88;;
44973;SDS011;60981;50.720;11.342;2023-02-11T05:24:06;27.92;;;17.08;;
44973;SDS011;60981;50.720;11.342;2023-02-11T05:25:10;27.27;;;17.23;;
44973;SDS011;60981;50.720;11.342;2023-02-11T05:26:11;26.52;;;16.52;;
44973;SDS011;60981;50.720;11.342;2023-02-11T05:27:14;29.55;;;17.50;;
44973;SDS011;60981;50.720;11.342;2023-02-11T05:28:16;27.75;;;16.63;;
44973;SDS011;60981;50.720;11.342;2023-02-11T05:29:18;26.70;;;16.77;;
44973;SDS011;60981;50.720;11.342;2023-02-11T05:30:20;29.90;;;18.58;;
44973;SDS011;60981;50.720;11.342;2023-02-11T05:31:22;28.67;;;17.05;;
44973;SDS011;60981;50.720;11.342;2023-02-11T05:32:24;27.17;;;17.23;;
44973;SDS011;60981;50.720;11.342;2023-02-11T05:33:26;28.33;;;17.83;;
44973;SDS011;60981;50.720;11.342;2023-02-11T05:34:28;27.23;;;17.35;;
44973;SDS011;60981;50.720;11.342;2023-02-11T05:35:29;26.58;;;16.85;;
44973;SDS011;60981;50.720;11.342;2023-02-11T05:36:31;30.45;;;18.08;;
44973;SDS011;60981;50.720;11.342;2023-02-11T05:37:35;28.60;;;18.33;;
44973;SDS011;60981;50.720;11.342;2023-02-11T05:38:37;31.20;;;19.40;;
44973;SDS011;60981;50.720;11.342;2023-02-11T05:39:39;29.23;;;18.85;;
44973;SDS011;60981;50.720;11.342;2023-02-11T05:40:41;28.92;;;17.55;;
44973;SDS011;60981;50.720;11.342;2023-02-11T05:41:44;30.20;;;18.35;;
44973;SDS011;60981;50.720;11.342;2023-02-11T05:42:47;28.00;;;17.17;;
44973;SDS011;60981;50.720;11.342;2023-02-11T05:43:48;30.17;;;17.55;;
44973;SDS011;60981;50.720;11.342;2023-02-11T05:44:54;30.75;;;17.90;;
44973;SDS011;60981;50.720;11.342;2023-02-11T05:45:56;29.30;;;18.40;;
44973;SDS011;60981;50.720;11.342;2023-02-11T05:46:58;29.80;;;18.53;;
44973;SDS011;60981;50.720;11.342;2023-02-11T05:47:59;30.48;;;18.52;;
44973;SDS011;60981;50.720;11.342;2023-02-11T05:49:01;30.50;;;18.75;;
44973;SDS011;60981;50.720;11.342;2023-02-11T05:50:03;31.20;;;19.30;;
44973;SDS011;60981;50.720;11.342;2023-02-11T05:51:09;31.08;;;18.08;;
44973;SDS011;60981;50.720;11.342;2023-02-11T05:52:10;28.92;;;17.60;;
44973;SDS011;60981;50.720;11.342;2023-02-11T05:53:12;27.63;;;17.95;;
44973;SDS011;60981;50.720;11.342;2023-02-11T05:54:14;28.40;;;18.55;;
44973;SDS011;60981;50.720;11.342;2023-02-11T05:55:16;29.00;;;18.02;;
44973;SDS011;60981;50.720;11.342;2023-02-11T05:56:18;29.30;;;17.73;;
44973;SDS011;60981;50.720;11.342;2023-02-11T05:57:20;27.77;;;17.17;;
44973;SDS011;60981;50.720;11.342;2023-02-11T05:58:23;28.75;;;18.08;;
44973;SDS011;60981;50.720;11.342;2023-02-11T05:59:25;28.35;;;17.67;;
44973;SDS011;60981;50.720;11.342;2023-02-11T06:00:27;26.45;;;16.92;;
44973;SDS011;60981;50.720;11.342;2023-02-11T06:01:30;30.50;;;17.98;;
44973;SDS011;60981;50.720;11.342;2023-02-11T06:02:31;27.45;;;17.25;;
44973;SDS011;60981;50.720;11.342;2023-02-11T06:03:37;29.02;;;17.50;;
44973;SDS011;60981;50.720;11.342;2023-02-11T06:04:39;27.55;;;17.02;;
44973;SDS011;60981;50.720;11.342;2023-02-11T06:05:42;29.95;;;18.17;;
44973;SDS011;60981;50.720;11.342;2023-02-11T06:06:45;27.95;;;17.25;;
44973;SDS011;60981;50.720;11.342;2023-02-11T06:07:48;27.35;;;17.35;;
44973;SDS011;60981;50.720;11.342;2023-02-11T06:08:50;26.95;;;17.23;;
44973;SDS011;60981;50.720;11.342;2023-02-11T06:09:51;28.55;;;18.13;;
44973;SDS011;60981;50.720;11.342;2023-02-11T06:10:53;29.55;;;17.77;;
44973;SDS011;60981;50.720;11.342;2023-02-11T06:11:55;29.67;;;18.50;;
44973;SDS011;60981;50.720;11.342;2023-02-11T06:12:56;29.27;;;18.70;;
44973;SDS011;60981;50.720;11.342;2023-02-11T06:13:58;28.58;;;17.65;;
44973;SDS011;60981;50.720;11.342;2023-02-11T06:14:59;28.48;;;17.63;;
44973;SDS011;60981;50.720;11.342;2023-02-11T06:16:01;28.70;;;17.48;;
44973;SDS011;60981;50.720;11.342;2023-02-11T06:17:03;28.33;;;17.75;;
44973;SDS011;60981;50.720;11.342;2023-02-11T06:18:06;28.48;;;17.85;;
44973;SDS011;60981;50.720;11.342;2023-02-11T06:19:08;27.30;;;17.50;;
44973;SDS011;60981;50.720;11.342;2023-02-11T06:20:10;27.42;;;16.55;;
44973;SDS011;60981;50.720;11.342;2023-02-11T06:21:11;28.58;;;17.15;;
44973;SDS011;60981;50.720;11.342;2023-02-11T06:22:13;29.20;;;18.52;;
44973;SDS011;60981;50.720;11.342;2023-02-11T06:23:15;26.08;;;17.05;;
44973;SDS011;60981;50.720;11.342;2023-02-11T06:24:17;28.13;;;18.40;;
44973;SDS011;60981;50.720;11.342;2023-02-11T06:25:39;30.45;;;18.48;;
44973;SDS011;60981;50.720;11.342;2023-02-11T06:26:40;28.58;;;18.20;;
44973;SDS011;60981;50.720;11.342;2023-02-11T06:27:42;29.05;;;18.55;;
44973;SDS011;60981;50.720;11.342;2023-02-11T06:28:44;30.48;;;18.65;;
44973;SDS011;60981;50.720;11.342;2023-02-11T06:29:46;28.55;;;18.08;;
44973;SDS011;60981;50.720;11.342;2023-02-11T06:30:48;28.20;;;18.13;;
44973;SDS011;60981;50.720;11.342;2023-02-11T06:31:50;27.30;;;17.42;;
44973;SDS011;60981;50.720;11.342;2023-02-11T06:32:51;29.33;;;18.10;;
44973;SDS011;60981;50.720;11.342;2023-02-11T06:33:53;28.60;;;17.60;;
44973;SDS011;60981;50.720;11.342;2023-02-11T06:34:59;29.10;;;18.00;;
44973;SDS011;60981;50.720;11.342;2023-02-11T06:36:01;31.58;;;20.90;;
44973;SDS011;60981;50.720;11.342;2023-02-11T06:37:04;29.77;;;20.20;;
44973;SDS011;60981;50.720;11.342;2023-02-11T06:38:05;33.00;;;21.23;;
44973;SDS011;60981;50.720;11.342;2023-02-11T06:39:10;39.38;;;25.42;;
44973;SDS011;60981;50.720;11.342;2023-02-11T06:40:12;41.83;;;26.42;;
44973;SDS011;60981;50.720;11.342;2023-02-11T06:41:15;42.22;;;26.50;;
44973;SDS011;60981;50.720;11.342;2023-02-11T06:42:20;43.58;;;26.48;;
44973;SDS011;60981;50.720;11.342;2023-02-11T06:43:22;45.10;;;26.27;;
44973;SDS011;60981;50.720;11.342;2023-02-11T06:44:23;41.47;;;24.90;;
44973;SDS011;60981;50.720;11.342;2023-02-11T06:45:25;34.58;;;20.05;;
44973;SDS011;60981;50.720;11.342;2023-02-11T06:46:26;44.97;;;26.10;;